Time;durP1;ratioP1;P1;durP2;ratioP2;P2;SDS_P1;SDS_P2;PMS_P1;PMS_P2;Temp;Humidity;BMP_temperature;BMP_pressure;BME280_temperature;BME280_humidity;BME280_pressure;Samples;Min_cycle;Max_cycle;Signal;HPM_P1;HPM_P2
2021/10/11 00:02:21;;;;;;;20.40;15.15;;;5.80;99.90;;;;;;5036333;28;20069;-73
2021/10/11 00:04:46;;;;;;;19.85;15.45;;;5.80;99.90;;;;;;5035793;28;20151;-72
2021/10/11 00:07:12;;;;;;;22.80;14.98;;;5.80;99.90;;;;;;5034940;28;20034;-72
2021/10/11 00:09:37;;;;;;;22.52;15.57;;;5.80;99.90;;;;;;5016249;28;20055;-72
2021/10/11 00:12:04;;;;;;;20.70;15.75;;;5.70;99.90;;;;;;5047105;28;20037;-74
2021/10/11 00:14:30;;;;;;;19.77;15.38;;;5.70;99.90;;;;;;5044057;28;20045;-73
2021/10/11 00:16:55;;;;;;;27.50;17.17;;;5.70;99.90;;;;;;5033922;28;20030;-72
2021/10/11 00:19:21;;;;;;;20.50;15.95;;;5.70;99.90;;;;;;5015940;28;20089;-73
2021/10/11 00:21:47;;;;;;;21.52;17.38;;;5.70;99.90;;;;;;5036190;28;20021;-73
2021/10/11 00:24:12;;;;;;;19.25;15.35;;;5.70;99.90;;;;;;5035282;28;20056;-72
2021/10/11 00:26:38;;;;;;;20.77;15.50;;;5.70;99.90;;;;;;5035300;28;20083;-73
2021/10/11 00:29:04;;;;;;;24.85;15.95;;;5.70;99.90;;;;;;5016874;28;20497;-73
2021/10/11 00:31:30;;;;;;;18.13;16.23;;;5.70;99.90;;;;;;5035118;28;20108;-72
2021/10/11 00:33:56;;;;;;;20.30;16.15;;;5.60;99.90;;;;;;5035311;28;20397;-72
2021/10/11 00:36:23;;;;;;;19.92;15.82;;;5.60;99.90;;;;;;5035055;28;20060;-72
2021/10/11 00:38:48;;;;;;;26.13;16.92;;;5.60;99.90;;;;;;5033955;28;20033;-72
2021/10/11 00:41:14;;;;;;;20.08;14.93;;;5.50;99.90;;;;;;5035554;28;20032;-73
2021/10/11 00:43:41;;;;;;;24.50;18.02;;;5.50;99.90;;;;;;5015477;28;20025;-73
2021/10/11 00:46:07;;;;;;;27.95;16.55;;;5.60;99.90;;;;;;5034942;28;20029;-73
2021/10/11 00:48:34;;;;;;;17.65;14.93;;;5.50;99.90;;;;;;5033981;28;20025;-73
2021/10/11 00:50:59;;;;;;;22.67;15.93;;;5.50;99.90;;;;;;5034333;28;20056;-72
2021/10/11 00:53:26;;;;;;;20.98;14.60;;;5.40;99.90;;;;;;5034130;28;20029;-72
2021/10/11 00:55:52;;;;;;;18.55;15.75;;;5.40;99.90;;;;;;5036166;28;20104;-72
2021/10/11 00:58:17;;;;;;;22.98;16.17;;;5.40;99.90;;;;;;5036646;28;20053;-72
2021/10/11 01:00:43;;;;;;;19.55;15.43;;;5.30;99.90;;;;;;5038907;28;20443;-72
2021/10/11 01:03:08;;;;;;;18.95;16.10;;;5.40;99.90;;;;;;5052450;28;20136;-71
2021/10/11 01:05:34;;;;;;;26.75;17.05;;;5.40;99.90;;;;;;5055198;28;20081;-71
2021/10/11 01:08:00;;;;;;;22.77;15.85;;;5.40;99.90;;;;;;5055016;28;20033;-72
2021/10/11 01:10:25;;;;;;;17.58;15.48;;;5.30;99.90;;;;;;5055764;28;20021;-72
2021/10/11 01:12:51;;;;;;;21.83;15.65;;;5.30;99.90;;;;;;5053165;28;20059;-72
2021/10/11 01:15:16;;;;;;;20.88;15.13;;;5.30;99.90;;;;;;5054820;28;20052;-72
2021/10/11 01:17:42;;;;;;;20.42;15.43;;;5.20;99.90;;;;;;5057110;28;20040;-72
2021/10/11 01:20:08;;;;;;;24.05;17.25;;;5.20;99.90;;;;;;5057072;28;20030;-72
2021/10/11 01:22:37;;;;;;;21.08;16.45;;;5.20;99.90;;;;;;5033692;28;20033;-72
2021/10/11 01:25:04;;;;;;;19.17;16.58;;;5.20;99.90;;;;;;5050907;28;20044;-71
2021/10/11 01:27:30;;;;;;;22.80;16.83;;;5.20;99.90;;;;;;5054253;28;20036;-72
2021/10/11 01:29:56;;;;;;;21.67;16.85;;;5.20;99.90;;;;;;5026393;28;20021;-73
2021/10/11 01:32:22;;;;;;;23.42;15.88;;;5.30;99.90;;;;;;5037959;28;20029;-74
2021/10/11 01:34:48;;;;;;;20.65;16.17;;;5.20;99.90;;;;;;5038811;28;20090;-72
2021/10/11 01:37:13;;;;;;;21.15;15.80;;;5.10;99.90;;;;;;5037969;28;20018;-72
2021/10/11 01:39:39;;;;;;;29.90;17.98;;;5.10;99.90;;;;;;5019132;28;20026;-72
2021/10/11 01:42:05;;;;;;;22.17;16.67;;;5.00;99.90;;;;;;5039057;28;20100;-72
2021/10/11 01:44:30;;;;;;;22.23;16.55;;;5.10;99.90;;;;;;5037577;28;20048;-72
2021/10/11 01:46:56;;;;;;;19.50;15.02;;;5.10;99.90;;;;;;5037324;28;20465;-72
2021/10/11 01:49:21;;;;;;;27.45;19.02;;;5.10;99.90;;;;;;5092216;22;20074;-78
2021/10/11 01:51:47;;;;;;;21.27;16.92;;;5.00;99.90;;;;;;5103938;28;20108;-78
2021/10/11 01:54:13;;;;;;;22.67;16.65;;;5.00;99.90;;;;;;5102708;28;20024;-78
2021/10/11 01:56:38;;;;;;;21.98;16.35;;;5.00;99.90;;;;;;5083506;28;20032;-78
2021/10/11 01:59:04;;;;;;;19.60;15.95;;;4.90;99.90;;;;;;5089248;28;20123;-77
2021/10/11 02:01:29;;;;;;;18.90;14.82;;;5.00;99.90;;;;;;5074113;28;20108;-78
2021/10/11 02:03:55;;;;;;;20.75;16.20;;;4.90;99.90;;;;;;5071836;28;20031;-78
2021/10/11 02:06:22;;;;;;;23.23;17.17;;;4.90;99.90;;;;;;5080422;28;20116;-78
2021/10/11 02:08:48;;;;;;;20.65;16.23;;;4.90;99.90;;;;;;5075478;28;20021;-78
2021/10/11 02:11:13;;;;;;;22.10;17.13;;;4.90;99.90;;;;;;5077918;28;20438;-78
2021/10/11 02:13:39;;;;;;;21.33;15.88;;;4.90;99.90;;;;;;5051252;28;20360;-78
2021/10/11 02:16:04;;;;;;;21.50;16.02;;;4.90;99.90;;;;;;5073453;28;20039;-78
2021/10/11 02:18:30;;;;;;;19.27;16.23;;;4.90;99.90;;;;;;5073826;28;20028;-78
2021/10/11 02:20:56;;;;;;;19.45;15.15;;;4.80;99.90;;;;;;5073943;28;20063;-78
2021/10/11 02:23:21;;;;;;;19.67;15.70;;;4.80;99.90;;;;;;5068721;28;20356;-77
2021/10/11 02:25:47;;;;;;;21.02;16.27;;;4.80;99.90;;;;;;5075024;28;20043;-77
2021/10/11 02:28:13;;;;;;;21.05;16.60;;;4.80;99.90;;;;;;5075817;28;20036;-78
2021/10/11 02:30:38;;;;;;;23.90;16.55;;;4.70;99.90;;;;;;5075044;28;20028;-78
2021/10/11 02:33:04;;;;;;;19.77;15.50;;;4.70;99.90;;;;;;5075007;28;20095;-78
2021/10/11 02:35:29;;;;;;;20.25;17.08;;;4.80;99.90;;;;;;5074254;28;20420;-78
2021/10/11 02:37:55;;;;;;;21.48;15.98;;;4.80;99.90;;;;;;5074833;28;20028;-78
2021/10/11 02:40:20;;;;;;;16.30;14.60;;;4.80;99.90;;;;;;5076603;28;20031;-78
2021/10/11 02:42:46;;;;;;;21.23;15.55;;;4.70;99.90;;;;;;5080156;28;20033;-77
2021/10/11 02:45:11;;;;;;;21.23;16.30;;;4.80;99.90;;;;;;5084940;28;20074;-79
2021/10/11 02:47:37;;;;;;;24.10;16.08;;;4.70;99.90;;;;;;5098160;28;20020;-80
2021/10/11 02:50:04;;;;;;;22.70;17.25;;;4.60;99.90;;;;;;5098167;28;20025;-80
2021/10/11 02:52:33;;;;;;;24.98;16.33;;;4.70;99.90;;;;;;5096187;28;20072;-78
2021/10/11 02:54:59;;;;;;;16.98;14.73;;;4.60;99.90;;;;;;5092606;28;20111;-78
2021/10/11 02:57:24;;;;;;;18.45;16.23;;;4.70;99.90;;;;;;5082125;28;20188;-77
2021/10/11 02:59:50;;;;;;;21.40;15.90;;;4.70;99.90;;;;;;5084316;28;20028;-78
2021/10/11 03:02:16;;;;;;;24.77;17.38;;;4.60;99.90;;;;;;5077656;28;20484;-78
2021/10/11 03:04:41;;;;;;;25.98;16.27;;;4.60;99.90;;;;;;5081483;28;20025;-78
2021/10/11 03:07:07;;;;;;;23.88;16.08;;;4.60;99.90;;;;;;5065661;28;20045;-78
2021/10/11 03:09:32;;;;;;;19.98;17.15;;;4.50;99.90;;;;;;5078521;28;20111;-78
2021/10/11 03:11:58;;;;;;;19.25;15.65;;;4.60;99.90;;;;;;5074589;28;20088;-79
2021/10/11 03:14:23;;;;;;;21.63;15.63;;;4.60;99.90;;;;;;5073549;28;20024;-78
2021/10/11 03:16:49;;;;;;;26.02;17.65;;;4.50;99.90;;;;;;5080553;28;20024;-77
2021/10/11 03:19:14;;;;;;;17.90;15.02;;;4.50;99.90;;;;;;5077653;28;20029;-77
2021/10/11 03:21:40;;;;;;;19.65;16.23;;;4.50;99.90;;;;;;5064595;28;20419;-78
2021/10/11 03:24:05;;;;;;;20.98;16.25;;;4.50;99.90;;;;;;5083893;28;20024;-79
2021/10/11 03:26:31;;;;;;;19.92;15.52;;;4.40;99.90;;;;;;5067523;28;20043;-78
2021/10/11 03:28:56;;;;;;;18.75;16.00;;;4.40;99.90;;;;;;5084821;28;20040;-78
2021/10/11 03:31:22;;;;;;;23.00;16.90;;;4.40;99.90;;;;;;5084252;28;20031;-79
2021/10/11 03:33:47;;;;;;;24.67;17.80;;;4.30;99.90;;;;;;5085916;28;20103;-78
2021/10/11 03:36:13;;;;;;;24.35;17.20;;;4.30;99.90;;;;;;5064448;28;20480;-79
2021/10/11 03:38:39;;;;;;;28.75;17.48;;;4.40;99.90;;;;;;5071474;28;20223;-79
2021/10/11 03:41:04;;;;;;;23.23;16.83;;;4.40;99.90;;;;;;5085456;28;20095;-79
2021/10/11 03:43:30;;;;;;;21.77;16.63;;;4.40;99.90;;;;;;5085069;28;20130;-79
2021/10/11 03:45:55;;;;;;;28.02;19.77;;;4.40;99.90;;;;;;5056219;28;20070;-78
2021/10/11 03:48:22;;;;;;;23.02;17.27;;;4.40;99.90;;;;;;5068733;28;20031;-78
2021/10/11 03:50:48;;;;;;;19.85;14.95;;;4.40;99.90;;;;;;5076179;28;20127;-79
2021/10/11 03:53:14;;;;;;;27.10;19.75;;;4.40;99.90;;;;;;5073839;28;20031;-79
2021/10/11 03:55:41;;;;;;;27.00;19.75;;;4.30;99.90;;;;;;5073174;28;20028;-79
2021/10/11 03:58:07;;;;;;;22.05;17.77;;;4.30;99.90;;;;;;5076556;28;20028;-79
2021/10/11 04:00:32;;;;;;;21.85;16.75;;;4.30;99.90;;;;;;5059542;28;20024;-79
2021/10/11 04:03:01;;;;;;;20.65;16.90;;;4.30;99.90;;;;;;5076341;28;20017;-79
2021/10/11 04:05:28;;;;;;;30.60;17.60;;;4.30;99.90;;;;;;5076018;28;20028;-79
2021/10/11 04:07:55;;;;;;;20.08;15.73;;;4.20;99.90;;;;;;5072117;28;20024;-79
2021/10/11 04:10:27;;;;;;;24.80;18.27;;;4.20;99.90;;;;;;5076682;28;20028;-80
2021/10/11 04:12:57;;;;;;;21.05;16.08;;;4.20;99.90;;;;;;5059075;28;20082;-79
2021/10/11 04:15:22;;;;;;;23.17;17.25;;;4.20;99.90;;;;;;5082563;28;20024;-79
2021/10/11 04:17:48;;;;;;;22.00;17.35;;;4.20;99.90;;;;;;5065037;28;20020;-79
2021/10/11 04:20:14;;;;;;;23.00;18.52;;;4.30;99.90;;;;;;5074196;28;20017;-77
2021/10/11 04:22:40;;;;;;;37.47;22.27;;;4.30;99.90;;;;;;5080157;28;20063;-77
2021/10/11 04:25:06;;;;;;;26.05;20.08;;;4.30;99.90;;;;;;5053488;28;20083;-77
2021/10/11 04:27:32;;;;;;;22.90;16.90;;;4.30;99.90;;;;;;5076823;28;20032;-78
2021/10/11 04:29:58;;;;;;;25.98;18.23;;;4.20;99.90;;;;;;5075276;28;20099;-79
2021/10/11 04:32:23;;;;;;;25.63;18.65;;;4.10;99.90;;;;;;5073812;28;20025;-77
2021/10/11 04:34:49;;;;;;;29.20;18.77;;;4.20;99.90;;;;;;5054975;28;20078;-77
2021/10/11 04:37:15;;;;;;;29.77;20.23;;;4.20;99.90;;;;;;5073210;28;20481;-77
2021/10/11 04:39:40;;;;;;;26.92;17.88;;;4.30;99.90;;;;;;5074284;28;20025;-77
2021/10/11 04:42:06;;;;;;;26.95;17.23;;;4.30;99.90;;;;;;5078728;28;20096;-77
2021/10/11 04:44:32;;;;;;;32.08;18.80;;;4.30;99.90;;;;;;5076879;28;20086;-79
2021/10/11 04:46:57;;;;;;;27.17;17.60;;;4.20;99.90;;;;;;5076207;28;20025;-79
2021/10/11 04:49:23;;;;;;;25.75;17.17;;;4.20;99.90;;;;;;5076473;28;20032;-78
2021/10/11 04:51:48;;;;;;;28.60;16.60;;;4.20;99.90;;;;;;5076581;28;20036;-78
2021/10/11 04:54:14;;;;;;;19.98;15.63;;;4.20;99.90;;;;;;5081850;28;20076;-79
2021/10/11 04:56:41;;;;;;;21.73;16.08;;;4.10;99.90;;;;;;5059893;28;20028;-79
2021/10/11 04:59:07;;;;;;;20.52;16.48;;;4.20;99.90;;;;;;5051965;28;20414;-79
2021/10/11 05:01:32;;;;;;;20.00;17.52;;;4.20;99.90;;;;;;5074225;28;20092;-78
2021/10/11 05:03:58;;;;;;;23.00;17.00;;;4.20;99.90;;;;;;5076409;28;20103;-78
2021/10/11 05:06:23;;;;;;;23.60;18.33;;;4.20;99.90;;;;;;5055748;28;20159;-77
2021/10/11 05:08:49;;;;;;;18.23;14.90;;;4.10;99.90;;;;;;5076387;28;20028;-78
2021/10/11 05:11:14;;;;;;;20.70;15.20;;;4.20;99.90;;;;;;5077676;28;20029;-79
2021/10/11 05:13:40;;;;;;;22.42;17.67;;;4.20;99.90;;;;;;5073477;28;20028;-78
2021/10/11 05:16:11;;;;;;;22.23;16.20;;;4.20;99.90;;;;;;5094486;28;20036;-79
2021/10/11 05:18:37;;;;;;;;;;;4.20;99.90;;;;;;5092946;28;20021;-78
2021/10/11 05:21:04;;;;;;;26.45;17.20;;;4.20;99.90;;;;;;5086097;28;19930;-78
2021/10/11 05:23:30;;;;;;;21.48;16.63;;;4.10;99.90;;;;;;5083152;28;20012;-78
2021/10/11 05:25:56;;;;;;;22.15;16.33;;;4.10;99.90;;;;;;5059256;28;20070;-78
2021/10/11 05:28:22;;;;;;;20.33;16.75;;;4.10;99.90;;;;;;5084944;28;20040;-78
2021/10/11 05:30:49;;;;;;;24.13;17.02;;;4.10;99.90;;;;;;5076445;28;20039;-78
2021/10/11 05:33:19;;;;;;;24.55;16.80;;;4.10;99.90;;;;;;5076549;28;20016;-78
2021/10/11 05:35:45;;;;;;;24.17;17.38;;;4.10;99.90;;;;;;5075382;28;20035;-79
2021/10/11 05:38:10;;;;;;;22.67;17.05;;;4.20;99.90;;;;;;5059082;28;20033;-78
2021/10/11 05:40:36;;;;;;;20.60;16.23;;;4.20;99.90;;;;;;5060590;28;20138;-78
2021/10/11 05:43:02;;;;;;;24.10;16.40;;;4.30;99.90;;;;;;5056192;28;20028;-78
2021/10/11 05:45:28;;;;;;;21.70;17.17;;;4.50;99.90;;;;;;5073671;28;20278;-76
2021/10/11 05:47:54;;;;;;;21.10;16.23;;;4.50;99.90;;;;;;5069677;28;20024;-75
2021/10/11 05:50:20;;;;;;;21.02;16.80;;;4.50;99.90;;;;;;5074675;28;20404;-76
2021/10/11 05:52:45;;;;;;;26.25;16.27;;;4.50;99.90;;;;;;5057472;28;20021;-76
2021/10/11 05:55:11;;;;;;;23.67;16.35;;;4.60;99.90;;;;;;5077560;28;20036;-76
2021/10/11 05:57:37;;;;;;;23.30;17.55;;;4.70;99.90;;;;;;5083349;28;20028;-77
2021/10/11 06:00:04;;;;;;;21.98;16.13;;;4.80;99.90;;;;;;5091279;28;20074;-76
2021/10/11 06:02:30;;;;;;;25.45;16.95;;;4.80;99.90;;;;;;5076131;28;20036;-77
2021/10/11 06:04:55;;;;;;;25.27;19.00;;;4.70;99.90;;;;;;5076867;28;20033;-77
2021/10/11 06:07:21;;;;;;;33.58;17.15;;;4.70;99.90;;;;;;5071098;28;20021;-77
2021/10/11 06:09:47;;;;;;;20.20;16.48;;;4.70;99.90;;;;;;5098129;28;20036;-76
2021/10/11 06:12:12;;;;;;;27.98;16.95;;;4.60;99.90;;;;;;5081486;28;20067;-76
2021/10/11 06:14:38;;;;;;;21.50;16.05;;;4.70;99.90;;;;;;5093042;28;20047;-76
2021/10/11 06:17:03;;;;;;;23.70;15.77;;;4.80;99.90;;;;;;5090335;28;20027;-75
2021/10/11 06:19:29;;;;;;;25.10;16.23;;;4.90;99.90;;;;;;5059279;28;20028;-76
2021/10/11 06:21:55;;;;;;;25.92;15.45;;;5.00;99.90;;;;;;5078447;28;20039;-76
2021/10/11 06:24:20;;;;;;;19.52;15.38;;;5.00;99.90;;;;;;5075091;28;20089;-76
2021/10/11 06:26:46;;;;;;;23.48;15.57;;;5.10;99.90;;;;;;5075118;28;20060;-75
2021/10/11 06:29:11;;;;;;;22.65;15.50;;;5.20;99.90;;;;;;5056530;28;20029;-75
2021/10/11 06:31:37;;;;;;;21.67;15.98;;;5.20;99.90;;;;;;5074053;28;20392;-74
2021/10/11 06:34:03;;;;;;;24.25;15.40;;;5.30;99.90;;;;;;5057040;28;20024;-74
2021/10/11 06:36:34;;;;;;;23.45;15.45;;;5.40;99.90;;;;;;5074703;28;20362;-75
2021/10/11 06:38:59;;;;;;;;;;;5.50;99.90;;;;;;5075146;28;20023;-75
2021/10/11 06:41:25;;;;;;;24.67;16.25;;;5.50;99.90;;;;;;5074388;28;20265;-76
2021/10/11 06:43:50;;;;;;;26.95;17.17;;;5.50;99.90;;;;;;5074141;28;20081;-75
2021/10/11 06:46:16;;;;;;;27.75;17.27;;;5.60;99.90;;;;;;5056047;28;20031;-75
2021/10/11 06:48:42;;;;;;;25.27;17.27;;;5.60;99.90;;;;;;5073688;28;20051;-75
2021/10/11 06:51:07;;;;;;;24.15;16.50;;;5.70;99.90;;;;;;5075379;28;20025;-76
2021/10/11 06:53:33;;;;;;;26.52;17.17;;;5.90;99.90;;;;;;5074545;28;20028;-76
2021/10/11 06:55:59;;;;;;;28.35;18.92;;;5.90;99.90;;;;;;5074084;28;20033;-76
2021/10/11 06:58:24;;;;;;;26.92;16.63;;;6.00;99.90;;;;;;5074029;28;20025;-76
2021/10/11 07:00:51;;;;;;;28.75;17.10;;;5.90;99.90;;;;;;5073504;28;20024;-76
2021/10/11 07:03:23;;;;;;;22.45;16.60;;;5.90;99.90;;;;;;5073991;28;20029;-77
2021/10/11 07:05:49;;;;;;;23.45;15.70;;;5.90;99.90;;;;;;5071222;28;20033;-76
2021/10/11 07:08:14;;;;;;;27.75;16.70;;;6.10;99.90;;;;;;5055762;28;20479;-76
2021/10/11 07:10:40;;;;;;;22.50;16.38;;;6.30;99.90;;;;;;5073833;28;20104;-76
2021/10/11 07:13:06;;;;;;;25.08;14.95;;;6.50;99.90;;;;;;5073254;28;20039;-77
2021/10/11 07:15:33;;;;;;;21.23;16.10;;;6.70;99.90;;;;;;5072272;28;20086;-76
2021/10/11 07:17:59;;;;;;;28.90;16.10;;;7.00;99.90;;;;;;5056062;28;20020;-75
2021/10/11 07:20:25;;;;;;;21.88;15.18;;;7.10;99.90;;;;;;5074943;28;20031;-76
2021/10/11 07:22:50;;;;;;;25.58;17.00;;;6.90;99.90;;;;;;5066575;28;20089;-76
2021/10/11 07:25:16;;;;;;;25.38;15.77;;;6.90;99.90;;;;;;5056898;28;20439;-77
2021/10/11 07:27:42;;;;;;;23.65;16.02;;;7.10;99.90;;;;;;5074551;28;20032;-77
2021/10/11 07:30:07;;;;;;;20.80;15.82;;;7.30;99.90;;;;;;5075450;28;20033;-75
2021/10/11 07:32:33;;;;;;;21.45;15.40;;;7.50;99.90;;;;;;5075068;28;20032;-76
2021/10/11 07:34:59;;;;;;;23.08;16.05;;;7.60;99.90;;;;;;5074154;28;20506;-76
2021/10/11 07:37:25;;;;;;;20.55;15.65;;;7.80;99.90;;;;;;5055595;28;20847;-79
2021/10/11 07:39:50;;;;;;;24.58;16.17;;;7.80;99.90;;;;;;5056570;28;20039;-78
2021/10/11 07:42:16;;;;;;;25.58;15.10;;;7.80;99.90;;;;;;5074613;28;20025;-76
2021/10/11 07:44:42;;;;;;;27.05;15.30;;;7.90;99.90;;;;;;5055679;28;20052;-75
2021/10/11 07:47:08;;;;;;;22.10;14.23;;;8.00;99.90;;;;;;5073957;28;20024;-76
2021/10/11 07:49:33;;;;;;;19.75;15.20;;;8.00;99.90;;;;;;5095544;22;20589;-73
2021/10/11 07:51:59;;;;;;;22.08;14.57;;;8.20;99.90;;;;;;5076268;28;20449;-73
2021/10/11 07:54:25;;;;;;;22.98;16.15;;;8.30;99.90;;;;;;5073287;28;20039;-73
2021/10/11 07:56:51;;;;;;;20.10;15.00;;;8.40;99.90;;;;;;5053656;28;20040;-73
2021/10/11 07:59:16;;;;;;;19.83;15.45;;;8.40;99.90;;;;;;5075144;28;20059;-74
2021/10/11 08:01:42;;;;;;;20.02;14.60;;;8.50;99.90;;;;;;5057570;28;20029;-74
2021/10/11 08:04:07;;;;;;;21.30;15.52;;;8.50;99.90;;;;;;5064960;28;20545;-74
2021/10/11 08:06:33;;;;;;;21.33;15.15;;;8.80;99.90;;;;;;5065074;28;20666;-73
2021/10/11 08:08:59;;;;;;;16.50;14.35;;;8.80;99.90;;;;;;5061299;28;20033;-73
2021/10/11 08:11:25;;;;;;;20.83;14.85;;;8.70;99.90;;;;;;5061307;28;20084;-73
2021/10/11 08:13:50;;;;;;;26.77;15.00;;;8.60;99.90;;;;;;5059405;28;20051;-74
2021/10/11 08:16:16;;;;;;;21.65;15.43;;;8.60;99.90;;;;;;5062206;28;20104;-73
2021/10/11 08:18:42;;;;;;;16.52;14.75;;;8.90;99.90;;;;;;5060355;28;20119;-74
2021/10/11 08:21:07;;;;;;;20.10;15.15;;;9.10;99.90;;;;;;5058989;28;20021;-73
2021/10/11 08:23:36;;;;;;;17.85;14.30;;;9.20;99.90;;;;;;5061656;28;20028;-72
2021/10/11 08:26:02;;;;;;;20.35;14.25;;;9.10;99.90;;;;;;5058779;28;20029;-73
2021/10/11 08:28:28;;;;;;;24.38;15.55;;;9.20;99.90;;;;;;5059018;28;20033;-73
2021/10/11 08:30:54;;;;;;;18.92;14.80;;;9.10;99.90;;;;;;5059094;28;20399;-72
2021/10/11 08:33:20;;;;;;;20.75;15.85;;;9.20;99.90;;;;;;5057460;28;20024;-73
2021/10/11 08:35:46;;;;;;;19.42;14.10;;;9.40;99.90;;;;;;5059287;28;20085;-73
2021/10/11 08:38:12;;;;;;;18.23;16.30;;;9.60;99.90;;;;;;5061171;28;20048;-72
2021/10/11 08:40:37;;;;;;;16.55;14.15;;;9.60;99.90;;;;;;5063341;28;20028;-73
2021/10/11 08:43:03;;;;;;;20.73;16.17;;;9.70;99.90;;;;;;5058846;28;20013;-73
2021/10/11 08:45:29;;;;;;;20.55;14.93;;;9.70;99.90;;;;;;5064410;28;20060;-72
2021/10/11 08:47:54;;;;;;;24.00;15.40;;;9.70;99.90;;;;;;5065904;28;20055;-74
2021/10/11 08:50:20;;;;;;;21.83;16.13;;;9.70;99.90;;;;;;5043676;28;20028;-73
2021/10/11 08:52:47;;;;;;;29.00;16.48;;;9.90;99.90;;;;;;5064785;28;20032;-73
2021/10/11 08:55:13;;;;;;;24.65;16.60;;;10.00;99.90;;;;;;5028246;28;20045;-73
2021/10/11 08:57:38;;;;;;;20.75;15.77;;;9.90;99.90;;;;;;5055324;28;20020;-74
2021/10/11 09:00:10;;;;;;;23.33;15.38;;;10.10;99.90;;;;;;5055183;28;20033;-74
2021/10/11 09:02:43;;;;;;;21.58;14.07;;;10.60;99.90;;;;;;5035565;28;20070;-75
2021/10/11 09:05:09;;;;;;;19.80;14.68;;;10.90;99.90;;;;;;5039716;28;20092;-73
2021/10/11 09:07:34;;;;;;;22.30;14.73;;;11.00;99.90;;;;;;5049063;28;20114;-73
2021/10/11 09:10:00;;;;;;;21.92;15.30;;;11.10;99.90;;;;;;5053419;28;20033;-73
2021/10/11 09:12:29;;;;;;;22.65;14.57;;;11.30;99.90;;;;;;5057509;28;20385;-73
2021/10/11 09:15:09;;;;;;;19.92;15.65;;;11.20;99.90;;;;;;5038947;28;20112;-73
2021/10/11 09:17:41;;;;;;;28.73;15.52;;;11.30;99.90;;;;;;5061850;28;20059;-74
2021/10/11 09:20:18;;;;;;;21.83;16.05;;;11.40;99.90;;;;;;5062275;28;20094;-75
2021/10/11 09:22:45;;;;;;;21.30;14.43;;;11.50;99.90;;;;;;5064134;28;20020;-75
2021/10/11 09:25:13;;;;;;;20.25;16.15;;;11.40;99.90;;;;;;5064108;28;20052;-73
2021/10/11 09:27:54;;;;;;;19.25;14.60;;;11.20;99.90;;;;;;5059105;28;20431;-73
2021/10/11 09:30:24;;;;;;;21.77;14.30;;;11.30;99.90;;;;;;5062434;28;20029;-73
2021/10/11 09:32:50;;;;;;;19.25;14.60;;;11.40;99.90;;;;;;5064808;28;20043;-73
2021/10/11 09:35:17;;;;;;;24.17;14.63;;;11.50;99.90;;;;;;5064912;28;20005;-75
2021/10/11 09:37:49;;;;;;;17.83;13.68;;;11.60;99.90;;;;;;5059577;28;20017;-77
2021/10/11 09:40:15;;;;;;;17.90;14.43;;;11.50;99.90;;;;;;5060396;28;20028;-73
2021/10/11 09:42:41;;;;;;;18.75;14.35;;;11.50;99.90;;;;;;5059950;28;20400;-74
2021/10/11 09:45:06;;;;;;;18.45;13.82;;;11.70;99.90;;;;;;5043327;28;20033;-74
2021/10/11 09:47:40;;;;;;;15.73;13.68;;;11.90;99.90;;;;;;5065464;28;20037;-73
2021/10/11 09:50:09;;;;;;;19.25;14.05;;;11.90;99.90;;;;;;5062322;28;20032;-72
2021/10/11 09:52:36;;;;;;;19.67;14.63;;;11.90;99.90;;;;;;5059898;28;20031;-73
2021/10/11 09:55:04;;;;;;;22.73;14.27;;;12.00;99.90;;;;;;5055411;28;20060;-74
2021/10/11 09:57:34;;;;;;;17.20;14.25;;;12.00;99.90;;;;;;5062445;28;20025;-74
2021/10/11 10:00:10;;;;;;;16.63;14.15;;;11.60;99.90;;;;;;5060522;28;20027;-74
2021/10/11 10:02:37;;;;;;;20.83;14.68;;;11.80;99.90;;;;;;5053544;28;20074;-73
2021/10/11 10:05:06;;;;;;;18.67;16.02;;;12.10;99.90;;;;;;5055377;28;20602;-75
2021/10/11 10:07:34;;;;;;;21.08;14.68;;;12.30;99.90;;;;;;5066977;28;20035;-73
2021/10/11 10:10:04;;;;;;;19.08;14.13;;;12.40;99.90;;;;;;5061117;28;20025;-74
2021/10/11 10:12:30;;;;;;;16.83;14.63;;;12.30;99.90;;;;;;5060735;28;20021;-73
2021/10/11 10:15:00;;;;;;;25.25;15.57;;;12.50;99.90;;;;;;5074045;28;20029;-75
2021/10/11 10:17:37;;;;;;;20.65;14.57;;;12.70;99.90;;;;;;5061531;28;20021;-74
2021/10/11 10:20:10;;;;;;;17.75;14.23;;;12.70;99.90;;;;;;5061150;28;20059;-74
2021/10/11 10:22:49;;;;;;;18.00;14.68;;;12.70;99.90;;;;;;5060442;28;20564;-75
2021/10/11 10:25:15;;;;;;;19.33;15.43;;;12.70;99.90;;;;;;5059827;28;20090;-75
2021/10/11 10:27:41;;;;;;;19.25;14.40;;;12.80;99.90;;;;;;5059133;28;20119;-73
2021/10/11 10:30:18;;;;;;;20.40;14.60;;;12.70;99.90;;;;;;5059613;28;20496;-73
2021/10/11 10:32:58;;;;;;;19.45;13.98;;;12.80;99.90;;;;;;5058428;28;20020;-73
2021/10/11 10:35:29;;;;;;;24.05;14.57;;;12.80;99.90;;;;;;5068410;28;20107;-73
2021/10/11 10:37:55;;;;;;;19.08;14.77;;;12.90;99.90;;;;;;5061328;28;20040;-73
2021/10/11 10:40:26;;;;;;;19.80;15.10;;;12.90;99.90;;;;;;5050615;28;20029;-74
2021/10/11 10:43:07;;;;;;;22.02;15.85;;;13.10;99.90;;;;;;5059700;28;20023;-73
2021/10/11 10:45:35;;;;;;;18.33;14.68;;;12.90;99.90;;;;;;5058875;28;20032;-72
2021/10/11 10:48:01;;;;;;;18.13;14.98;;;13.00;99.90;;;;;;5058601;28;20064;-73
2021/10/11 10:50:30;;;;;;;20.80;15.70;;;13.10;99.90;;;;;;5053390;28;20059;-73
2021/10/11 10:52:58;;;;;;;20.05;13.63;;;13.60;99.90;;;;;;5056645;28;20033;-75
2021/10/11 10:55:24;;;;;;;17.23;15.55;;;13.90;99.90;;;;;;5044213;28;20033;-74
2021/10/11 10:57:54;;;;;;;20.00;15.25;;;14.10;99.90;;;;;;5059025;28;20031;-73
2021/10/11 11:00:20;;;;;;;23.40;17.30;;;13.90;99.90;;;;;;5036760;28;20052;-72
2021/10/11 11:02:52;;;;;;;24.75;15.70;;;13.70;99.90;;;;;;5038820;28;20531;-76
2021/10/11 11:05:20;;;;;;;21.02;16.63;;;13.90;99.90;;;;;;5059253;28;20063;-74
2021/10/11 11:07:50;;;;;;;21.15;14.80;;;14.00;99.90;;;;;;5056550;28;20112;-72
2021/10/11 11:10:18;;;;;;;17.00;15.02;;;14.00;99.90;;;;;;5060667;28;20020;-71
2021/10/11 11:12:50;;;;;;;18.75;14.55;;;13.70;99.90;;;;;;5055160;28;20451;-73
2021/10/11 11:15:30;;;;;;;20.70;14.73;;;13.70;99.90;;;;;;5046842;28;20476;-73
2021/10/11 11:18:01;;;;;;;16.50;13.87;;;14.10;99.90;;;;;;5054937;28;20024;-73
2021/10/11 11:20:30;;;;;;;17.95;14.40;;;14.10;99.90;;;;;;5062780;28;20264;-73
2021/10/11 11:23:00;;;;;;;18.55;14.38;;;14.40;99.90;;;;;;5058690;28;20037;-73
2021/10/11 11:25:29;;;;;;;23.05;14.52;;;13.90;99.90;;;;;;5058393;28;20100;-75
2021/10/11 11:27:57;;;;;;;20.55;14.10;;;13.60;99.90;;;;;;5057079;28;20037;-73
2021/10/11 11:30:23;;;;;;;17.95;14.48;;;13.30;99.90;;;;;;5070500;28;20032;-73
2021/10/11 11:32:55;;;;;;;21.05;13.68;;;13.70;99.90;;;;;;5074108;28;20092;-74
2021/10/11 11:35:22;;;;;;;15.35;13.30;;;13.40;99.90;;;;;;5076855;28;20024;-75
2021/10/11 11:37:49;;;;;;;20.50;14.55;;;13.70;99.90;;;;;;5057089;28;20021;-73
2021/10/11 11:40:21;;;;;;;17.70;13.32;;;13.90;99.90;;;;;;5060022;28;20560;-73
2021/10/11 11:42:48;;;;;;;19.35;14.52;;;14.10;99.90;;;;;;5038791;28;20053;-72
2021/10/11 11:45:16;;;;;;;20.75;14.98;;;13.80;99.90;;;;;;5059630;28;20469;-72
2021/10/11 11:47:41;;;;;;;19.83;13.98;;;13.60;99.90;;;;;;5057677;28;20060;-72
2021/10/11 11:50:22;;;;;;;16.95;13.57;;;13.70;99.90;;;;;;5069111;28;20037;-74
2021/10/11 11:52:57;;;;;;;18.50;13.23;;;14.10;99.90;;;;;;5030996;28;20502;-72
2021/10/11 11:55:22;;;;;;;17.83;13.52;;;14.10;99.90;;;;;;5047266;28;20033;-74
2021/10/11 11:57:48;;;;;;;17.67;14.10;;;13.90;99.90;;;;;;5057968;28;20029;-73
2021/10/11 12:00:14;;;;;;;15.80;12.38;;;14.20;99.90;;;;;;5060966;28;20061;-74
2021/10/11 12:02:43;;;;;;;16.05;13.48;;;14.10;99.90;;;;;;5073966;28;20023;-72
2021/10/11 12:05:09;;;;;;;14.95;13.40;;;14.00;99.90;;;;;;5076949;28;20431;-73
2021/10/11 12:07:38;;;;;;;16.70;12.57;;;13.80;99.90;;;;;;5064743;28;20063;-73
2021/10/11 12:10:04;;;;;;;15.27;13.43;;;13.80;99.90;;;;;;5058244;28;20056;-73
2021/10/11 12:12:34;;;;;;;20.42;13.18;;;13.80;99.90;;;;;;5060662;28;20569;-72
2021/10/11 12:15:00;;;;;;;21.73;13.75;;;13.90;99.90;;;;;;5063409;28;20029;-73
2021/10/11 12:17:37;;;;;;;19.83;12.98;;;13.90;99.90;;;;;;5063184;28;20103;-75
2021/10/11 12:20:03;;;;;;;17.23;12.93;;;14.00;99.90;;;;;;5063744;28;20021;-74
2021/10/11 12:22:32;;;;;;;16.85;14.63;;;14.10;99.90;;;;;;5060443;28;20029;-72
2021/10/11 12:25:00;;;;;;;20.00;14.93;;;14.20;99.90;;;;;;5048878;28;20523;-72
2021/10/11 12:27:26;;;;;;;18.17;13.23;;;14.40;99.90;;;;;;5058810;28;20072;-74
2021/10/11 12:29:54;;;;;;;17.95;13.52;;;14.30;99.90;;;;;;5069164;28;20067;-72
2021/10/11 12:32:33;;;;;;;20.33;15.55;;;14.40;99.90;;;;;;5070545;28;20024;-71
2021/10/11 12:35:00;;;;;;;15.57;13.63;;;14.40;99.90;;;;;;5070055;28;20036;-73